Time;durP1;ratioP1;P1;durP2;ratioP2;P2;SDS_P1;SDS_P2;PMS_P1;PMS_P2;Temp;Humidity;BMP_temperature;BMP_pressure;BME280_temperature;BME280_humidity;BME280_pressure;Samples;Min_cycle;Max_cycle;Signal;HPM_P1;HPM_P2
2023/05/12 00:00:15;;;;;;;44.92;20.08;;;;;;;12.93;100.00;101218.81;5079983;28;20028;-79
2023/05/12 00:02:41;;;;;;;40.50;19.33;;;;;;;12.94;100.00;101220.56;5081911;28;20401;-80
2023/05/12 00:05:07;;;;;;;40.97;19.15;;;;;;;12.83;100.00;101215.09;5069753;28;20532;-80
2023/05/12 00:07:32;;;;;;;38.55;19.23;;;;;;;12.71;100.00;101199.59;5087229;28;20402;-80
2023/05/12 00:09:58;;;;;;;41.90;18.80;;;;;;;12.87;100.00;101220.22;5044671;28;20039;-80
2023/05/12 00:12:23;;;;;;;39.85;19.52;;;;;;;12.75;100.00;101218.47;5072122;28;20043;-82
2023/05/12 00:14:51;;;;;;;45.80;19.42;;;;;;;12.78;100.00;101222.84;5097881;28;20039;-80
2023/05/12 00:17:16;;;;;;;38.55;18.83;;;;;;;12.69;100.00;101191.47;5080857;28;20066;-80
2023/05/12 00:19:43;;;;;;;42.47;18.55;;;;;;;12.67;100.00;101188.91;5064326;28;20063;-81
2023/05/12 00:22:12;;;;;;;43.35;19.25;;;;;;;12.84;100.00;101214.97;5066741;28;20040;-80
2023/05/12 00:24:38;;;;;;;41.92;18.92;;;;;;;12.75;100.00;101203.84;5075768;28;20027;-81
2023/05/12 00:27:05;;;;;;;39.10;19.38;;;;;;;12.72;100.00;101207.72;5085502;28;20029;-81
2023/05/12 00:29:31;;;;;;;43.47;18.90;;;;;;;12.60;100.00;101201.38;5079360;28;20036;-81
2023/05/12 00:31:57;;;;;;;44.95;19.27;;;;;;;12.77;100.00;101212.84;5083957;28;20082;-81
2023/05/12 00:34:22;;;;;;;41.78;19.77;;;;;;;12.81;100.00;101212.47;5078422;28;20457;-81
2023/05/12 00:36:48;;;;;;;42.45;19.80;;;;;;;12.75;100.00;101206.59;5074283;28;20036;-81
2023/05/12 00:39:13;;;;;;;42.75;18.75;;;;;;;12.72;100.00;101207.72;5060025;28;20036;-81
2023/05/12 00:41:39;;;;;;;40.45;18.85;;;;;;;12.58;100.00;101205.25;5056520;28;20055;-81
2023/05/12 00:44:04;;;;;;;37.75;18.95;;;;;;;12.64;100.00;101211.13;5075627;28;20038;-81
2023/05/12 00:46:30;;;;;;;43.85;19.17;;;;;;;12.41;100.00;101182.81;5061148;28;20036;-81
2023/05/12 00:48:56;;;;;;;48.65;18.17;;;;;;;12.58;100.00;101208.00;5080443;28;20043;-82
2023/05/12 00:51:22;;;;;;;38.67;18.00;;;;;;;12.54;100.00;101204.63;5066413;28;20483;-81
2023/05/12 00:53:48;;;;;;;37.53;17.65;;;;;;;12.47;100.00;101200.63;5059237;28;20028;-81
2023/05/12 00:56:15;;;;;;;35.58;15.93;;;;;;;12.44;100.00;101201.75;5058419;28;20029;-81
2023/05/12 00:58:41;;;;;;;35.22;15.90;;;;;;;12.29;100.00;101186.53;5067865;28;20478;-81
2023/05/12 01:01:06;;;;;;;35.35;16.17;;;;;;;12.30;100.00;101194.66;5049441;28;20032;-87
2023/05/12 01:03:32;;;;;;;40.33;17.30;;;;;;;12.29;100.00;101192.88;5028427;28;20077;-87
2023/05/12 01:06:28;;;;;;;37.38;17.45;;;;;;;12.35;100.00;101197.03;5041479;28;20028;-88
2023/05/12 01:08:54;;;;;;;38.92;17.08;;;;;;;12.36;100.00;101186.91;5107843;28;20044;-88
2023/05/12 01:11:21;;;;;;;35.30;16.10;;;;;;;12.22;100.00;101186.16;5095824;28;20034;-90
2023/05/12 01:13:47;;;;;;;35.95;14.98;;;;;;;12.12;100.00;101175.03;5058924;28;20036;-88
2023/05/12 01:16:14;;;;;;;37.70;17.58;;;;;;;12.13;100.00;101175.91;5072709;28;20034;-87
2023/05/12 01:18:48;;;;;;;36.55;16.05;;;;;;;12.17;100.00;101171.03;5073617;28;20034;-89
2023/05/12 01:21:15;;;;;;;31.80;16.05;;;;;;;12.28;100.00;101185.66;5076340;28;20036;-89
2023/05/12 01:23:45;;;;;;;45.78;17.85;;;;;;;12.24;100.00;101184.16;5107194;28;20011;-90
2023/05/12 01:26:11;;;;;;;40.42;17.40;;;;;;;12.24;100.00;101181.41;5070972;28;20038;-89
2023/05/12 01:28:39;;;;;;;40.40;16.95;;;;;;;12.23;100.00;101179.69;5086412;28;20032;-89
2023/05/12 01:31:07;;;;;;;38.58;17.00;;;;;;;12.47;100.00;101179.53;5082778;27;20081;-85
2023/05/12 01:34:32;;;;;;;39.92;17.15;;;;;;;-147.95;100.00;58458.38;5113629;28;20035;-89
2023/05/12 01:37:56;;;;;;;37.10;17.60;;;;;;;-147.95;100.00;58458.38;5065389;28;20024;-89
2023/05/12 01:41:20;;;;;;;39.45;16.92;;;;;;;-147.95;100.00;58458.38;5059896;28;20067;-88
2023/05/12 01:44:44;;;;;;;;;;;;;;;-147.95;100.00;58458.38;5060583;28;20047;-88
2023/05/12 01:48:11;;;;;;;27.70;14.02;;;;;;;-147.95;100.00;58458.38;5065870;28;19919;-86
2023/05/12 01:51:35;;;;;;;33.38;14.40;;;;;;;-147.95;100.00;58458.38;5068014;28;20047;-86
2023/05/12 01:54:59;;;;;;;;;;;;;;;-147.95;100.00;58458.38;5056118;28;20036;-87
2023/05/12 01:58:23;;;;;;;28.93;13.70;;;;;;;-147.95;100.00;58458.38;5081432;28;19923;-86
2023/05/12 02:01:47;;;;;;;26.67;13.07;;;;;;;-147.95;100.00;58458.38;5084949;28;20103;-87
2023/05/12 02:05:11;;;;;;;26.35;12.95;;;;;;;-147.95;100.00;58458.38;5068063;28;20824;-89
2023/05/12 02:08:35;;;;;;;27.95;12.40;;;;;;;-147.95;100.00;58458.38;5071994;28;20032;-89
2023/05/12 02:12:06;;;;;;;24.92;12.25;;;;;;;-147.95;100.00;58458.38;5066336;28;20036;-89
2023/05/12 02:15:30;;;;;;;28.58;11.75;;;;;;;-147.95;100.00;58458.38;5053742;28;20032;-89
2023/05/12 02:18:54;;;;;;;;;;;;;;;-147.95;100.00;58458.38;5055931;28;20036;-88
2023/05/12 02:22:18;;;;;;;25.80;11.80;;;;;;;-147.95;100.00;58458.38;5065593;28;19916;-88
2023/05/12 02:25:42;;;;;;;21.00;10.38;;;;;;;-147.95;100.00;58458.38;5079801;28;20043;-88
2023/05/12 02:29:06;;;;;;;;;;;;;;;-147.95;100.00;58458.38;5082539;28;20372;-88
2023/05/12 02:32:30;;;;;;;20.10;8.97;;;;;;;-147.95;100.00;58458.38;5080186;28;19947;-89
2023/05/12 02:35:54;;;;;;;20.83;9.77;;;;;;;-147.95;100.00;58458.38;5080120;28;20032;-87
2023/05/12 02:39:18;;;;;;;19.85;9.65;;;;;;;-147.95;100.00;58458.38;5080991;28;20340;-86
2023/05/12 02:42:45;;;;;;;21.00;9.52;;;;;;;-147.95;100.00;58458.38;5064198;28;20581;-87
2023/05/12 02:46:12;;;;;;;17.98;9.60;;;;;;;-147.95;100.00;58458.38;5102501;28;20026;-86
2023/05/12 02:49:35;;;;;;;18.85;7.80;;;;;;;-147.95;100.00;58458.38;5090967;28;20030;-87
2023/05/12 02:52:59;;;;;;;16.10;7.95;;;;;;;-147.95;100.00;58458.38;5072948;28;20397;-88
2023/05/12 02:56:24;;;;;;;15.90;7.40;;;;;;;-147.95;100.00;58458.38;5091600;28;20405;-87
2023/05/12 02:59:48;;;;;;;13.48;6.95;;;;;;;-147.95;100.00;58458.38;5081870;28;20055;-87
2023/05/12 03:03:12;;;;;;;;;;;;;;;-147.95;100.00;58458.38;5109805;28;20032;-87
2023/05/12 03:06:36;;;;;;;15.83;6.53;;;;;;;-147.95;100.00;58458.38;5086242;28;19921;-86
2023/05/12 03:10:00;;;;;;;;;;;;;;;-147.95;100.00;58458.38;5076962;28;20895;-87
2023/05/12 03:13:25;;;;;;;12.38;6.57;;;;;;;-147.95;100.00;58458.38;5062317;28;19922;-87
2023/05/12 03:16:48;;;;;;;21.50;8.65;;;;;;;-147.95;100.00;58458.38;5089076;28;20039;-87
2023/05/12 03:20:15;;;;;;;18.58;9.27;;;;;;;-147.95;100.00;58458.38;5071921;28;20183;-86
2023/05/12 03:23:39;;;;;;;20.75;9.18;;;;;;;-147.95;100.00;58458.38;5091215;28;20051;-86
2023/05/12 03:27:03;;;;;;;;;;;;;;;-147.95;100.00;58458.38;5095386;28;20035;-87
2023/05/12 03:30:27;;;;;;;25.35;9.15;;;;;;;-147.95;100.00;58458.38;5094435;28;20362;-86
2023/05/12 03:33:51;;;;;;;28.63;10.13;;;;;;;-147.95;100.00;58458.38;5086403;28;20123;-86
2023/05/12 03:37:15;;;;;;;33.45;11.00;;;;;;;-147.95;100.00;58458.38;5077585;28;20440;-85
2023/05/12 03:40:39;;;;;;;28.90;11.05;;;;;;;-147.95;100.00;58458.38;5049559;28;20039;-85
2023/05/12 03:44:07;;;;;;;;;;;;;;;-147.95;100.00;58458.38;5070851;28;20119;-85
2023/05/12 03:47:31;;;;;;;40.40;13.13;;;;;;;-147.95;100.00;58458.38;5068843;28;20366;-88
2023/05/12 03:50:55;;;;;;;47.85;15.45;;;;;;;-147.95;100.00;58458.38;5073736;28;20081;-88
2023/05/12 03:54:19;;;;;;;50.35;16.30;;;;;;;-147.95;100.00;58458.38;5041240;28;20040;-87
2023/05/12 03:57:42;;;;;;;;;;;;;;;-147.95;100.00;58458.38;5060903;28;20040;-88
2023/05/12 04:01:07;;;;;;;57.87;18.57;;;;;;;-147.95;100.00;58458.38;5078839;28;19955;-88
2023/05/12 04:04:31;;;;;;;62.30;20.08;;;;;;;-147.95;100.00;58458.38;5075592;28;20090;-87
2023/05/12 04:07:54;;;;;;;63.60;20.33;;;;;;;-147.95;100.00;58458.38;5060821;28;20024;-85
2023/05/12 04:11:18;;;;;;;69.03;21.55;;;;;;;-147.95;100.00;58458.38;5071511;28;20036;-86
2023/05/12 04:14:42;;;;;;;65.45;23.45;;;;;;;-147.95;100.00;58458.38;5083055;28;20040;-86
2023/05/12 04:18:06;;;;;;;75.13;22.83;;;;;;;-147.95;100.00;58458.38;5092512;28;20514;-86
2023/05/12 04:21:31;;;;;;;82.65;24.27;;;;;;;-147.95;100.00;58458.38;5076038;28;20047;-87
2023/05/12 04:24:27;;;;;;;80.13;25.27;;;;;;;-147.95;100.00;58458.38;5093312;28;20062;-85
2023/05/12 04:26:52;;;;;;;102.47;27.67;;;;;;;-147.95;100.00;58458.38;5098822;23;20124;-86
2023/05/12 04:31:54;;;;;;;88.18;26.50;;;;;;;-147.95;100.00;58458.38;5116739;22;20067;-87
2023/05/12 04:34:20;;;;;;;99.20;27.55;;;;;;;-147.95;100.00;58458.38;5005789;28;20067;-87
2023/05/12 04:36:45;;;;;;;97.93;27.13;;;;;;;-147.95;100.00;58458.38;5035010;28;20104;-89
2023/05/12 04:39:11;;;;;;;108.55;30.42;;;;;;;-147.95;100.00;58458.38;5015813;28;20034;-86
2023/05/12 04:41:37;;;;;;;97.63;28.25;;;;;;;-147.95;100.00;58458.38;5026904;28;20036;-84
2023/05/12 04:44:02;;;;;;;110.38;28.02;;;;;;;-147.95;100.00;58458.38;5019519;28;20499;-85
2023/05/12 04:46:28;;;;;;;98.40;28.85;;;;;;;-147.95;100.00;58458.38;5036988;28;20487;-84
2023/05/12 04:48:53;;;;;;;102.60;28.83;;;;;;;-147.95;100.00;58458.38;5000644;28;20490;-85
2023/05/12 04:51:19;;;;;;;96.10;28.45;;;;;;;-147.95;100.00;58458.38;5007692;28;20063;-86
2023/05/12 04:53:44;;;;;;;96.28;28.90;;;;;;;-147.95;100.00;58458.38;5045045;28;20029;-86
2023/05/12 04:56:12;;;;;;;87.53;28.30;;;;;;;-147.95;100.00;58458.38;4998295;28;20033;-84
2023/05/12 04:58:38;;;;;;;95.30;29.42;;;;;;;-147.95;100.00;58458.38;4994948;28;20035;-84
2023/05/12 05:01:03;;;;;;;90.97;28.67;;;;;;;-147.95;100.00;58458.38;5025564;28;20119;-84
2023/05/12 05:03:29;;;;;;;92.82;29.15;;;;;;;-147.95;100.00;58458.38;5009353;28;20041;-84
2023/05/12 05:05:55;;;;;;;81.13;27.33;;;;;;;-147.95;100.00;58458.38;5042783;28;20053;-84
2023/05/12 05:08:20;;;;;;;90.47;29.20;;;;;;;-147.95;100.00;58458.38;5010952;28;20398;-84
2023/05/12 05:10:46;;;;;;;97.30;29.88;;;;;;;-147.95;100.00;58458.38;4995399;28;20032;-84
2023/05/12 05:13:11;;;;;;;92.03;29.15;;;;;;;-147.95;100.00;58458.38;5040595;28;20112;-84
2023/05/12 05:15:37;;;;;;;85.78;29.23;;;;;;;-147.95;100.00;58458.38;4995075;28;20034;-83
2023/05/12 05:18:02;;;;;;;90.93;30.85;;;;;;;-147.95;100.00;58458.38;5024081;28;20045;-84
2023/05/12 05:20:28;;;;;;;88.72;31.75;;;;;;;-147.95;100.00;58458.38;5038001;28;20507;-83
2023/05/12 05:22:53;;;;;;;89.95;31.63;;;;;;;-147.95;100.00;58458.38;5024630;28;20037;-84
2023/05/12 05:25:19;;;;;;;101.40;32.45;;;;;;;-147.95;100.00;58458.38;5021649;28;20048;-84
2023/05/12 05:27:44;;;;;;;90.10;32.78;;;;;;;-147.95;100.00;58458.38;5002916;28;20606;-84
2023/05/12 05:30:12;;;;;;;93.72;32.50;;;;;;;-147.95;100.00;58458.38;5039764;28;20055;-84
2023/05/12 05:32:39;;;;;;;93.93;32.95;;;;;;;-147.95;100.00;58458.38;5044636;28;20111;-84
2023/05/12 05:35:05;;;;;;;99.57;33.78;;;;;;;-147.95;100.00;58458.38;5021951;28;20029;-84
2023/05/12 05:37:31;;;;;;;85.82;31.90;;;;;;;-147.95;100.00;58458.38;5047536;28;20032;-84
2023/05/12 05:39:57;;;;;;;69.05;29.70;;;;;;;-147.95;100.00;58458.38;5036214;28;20028;-85
2023/05/12 05:42:22;;;;;;;73.00;31.17;;;;;;;-147.95;100.00;58458.38;5033687;28;20043;-85
2023/05/12 05:44:48;;;;;;;59.95;27.05;;;;;;;-147.95;100.00;58458.38;5042919;28;20039;-85
2023/05/12 05:47:13;;;;;;;52.17;26.20;;;;;;;-147.95;100.00;58458.38;5024550;28;20396;-84
2023/05/12 05:49:38;;;;;;;58.92;27.38;;;;;;;-147.95;100.00;58458.38;5057745;28;20045;-83
2023/05/12 05:52:04;;;;;;;61.63;29.45;;;;;;;-147.95;100.00;58458.38;5079491;28;20036;-82
2023/05/12 05:54:29;;;;;;;54.97;28.45;;;;;;;-147.95;100.00;58458.38;5072240;28;20060;-83
2023/05/12 05:56:55;;;;;;;58.53;28.65;;;;;;;-147.95;100.00;58458.38;5040562;28;20094;-83
2023/05/12 05:59:20;;;;;;;58.38;28.48;;;;;;;-147.95;100.00;58458.38;5021364;28;20376;-82
2023/05/12 06:01:46;;;;;;;55.03;26.70;;;;;;;-147.95;100.00;58458.38;5024948;28;20033;-83
2023/05/12 06:04:11;;;;;;;45.05;25.92;;;;;;;-147.95;100.00;58458.38;5057335;28;20476;-83
2023/05/12 06:06:37;;;;;;;46.75;25.73;;;;;;;-147.95;100.00;58458.38;5061072;28;20029;-80
2023/05/12 06:09:02;;;;;;;54.67;24.63;;;;;;;-147.95;100.00;58458.38;5033841;28;20045;-81
2023/05/12 06:11:27;;;;;;;46.97;21.30;;;;;;;-147.95;100.00;58458.38;5056008;28;20029;-83
2023/05/12 06:13:53;;;;;;;35.10;20.33;;;;;;;-147.95;100.00;58458.38;5031195;28;20029;-81
2023/05/12 06:16:18;;;;;;;39.15;20.65;;;;;;;-147.95;100.00;58458.38;5061973;28;20052;-81
2023/05/12 06:18:44;;;;;;;35.17;18.20;;;;;;;-147.95;100.00;58458.38;5059015;28;20110;-83
2023/05/12 06:21:09;;;;;;;36.25;16.73;;;;;;;-147.95;100.00;58458.38;5038349;28;20012;-85
2023/05/12 06:23:35;;;;;;;36.78;15.82;;;;;;;-147.95;100.00;58458.38;5050542;28;20029;-81
2023/05/12 06:26:02;;;;;;;30.45;17.27;;;;;;;-147.95;100.00;58458.38;5064726;28;20384;-86
2023/05/12 06:36:24;;;;;;;24.95;14.18;;;;;;;-147.95;100.00;58458.38;5422236;23;20041;-86
2023/05/12 06:41:45;;;;;;;23.15;14.05;;;;;;;-147.95;100.00;58458.38;5024904;23;20063;-85
2023/05/12 06:46:46;;;;;;;18.95;10.57;;;;;;;-147.95;100.00;58458.38;5228161;23;20063;-85
2023/05/12 06:49:12;;;;;;;15.50;9.88;;;;;;;-147.95;100.00;58458.38;4969038;28;20042;-85
2023/05/12 06:51:37;;;;;;;15.07;11.15;;;;;;;-147.95;100.00;58458.38;4940966;28;20421;-83
2023/05/12 06:54:03;;;;;;;11.63;7.88;;;;;;;14.27;100.00;101248.63;4948214;28;20134;-86
2023/05/12 06:56:28;;;;;;;14.73;9.00;;;;;;;14.33;100.00;101256.38;4927399;29;20035;-86
2023/05/12 06:58:59;;;;;;;13.48;8.77;;;;;;;14.73;100.00;101260.22;4916002;29;20035;-87
2023/05/12 07:01:29;;;;;;;11.23;7.97;;;;;;;14.95;100.00;101259.13;4911053;29;20027;-86
2023/05/12 07:03:54;;;;;;;7.78;6.32;;;;;;;15.03;100.00;101256.53;4962017;28;20089;-86
2023/05/12 07:06:21;;;;;;;9.85;7.20;;;;;;;14.91;100.00;101256.81;4942380;29;20553;-86
2023/05/12 07:08:47;;;;;;;9.48;6.78;;;;;;;14.93;100.00;101261.16;4921124;28;20118;-87
2023/05/12 07:11:18;;;;;;;10.20;6.68;;;;;;;14.87;100.00;101261.72;4954709;28;20019;-87
2023/05/12 07:13:47;;;;;;;10.02;7.10;;;;;;;14.73;100.00;101260.22;4970493;28;20133;-87
2023/05/12 07:16:14;;;;;;;12.73;7.38;;;;;;;14.79;100.00;101265.19;4923636;28;20054;-87
2023/05/12 07:18:39;;;;;;;9.27;7.57;;;;;;;15.00;100.00;101266.97;4950310;28;20124;-86
2023/05/12 07:21:05;;;;;;;15.20;9.90;;;;;;;15.04;100.00;101268.47;4955206;28;20099;-87
2023/05/12 07:23:31;;;;;;;13.00;8.90;;;;;;;15.43;100.00;101269.41;4941290;28;20039;-87
2023/05/12 07:25:56;;;;;;;13.52;8.73;;;;;;;15.42;100.00;101262.13;4952215;28;20105;-87
2023/05/12 07:28:22;;;;;;;13.02;6.88;;;;;;;15.31;100.00;101269.69;4912039;28;20516;-87
2023/05/12 07:30:47;;;;;;;10.55;7.00;;;;;;;15.32;100.00;101260.41;4943699;28;20121;-88
2023/05/12 07:33:13;;;;;;;7.80;5.15;;;;;;;15.71;100.00;101280.63;4951781;29;20078;-87
2023/05/12 07:35:38;;;;;;;16.80;5.95;;;;;;;16.25;100.00;101278.31;4945615;28;20043;-88
2023/05/12 07:38:04;;;;;;;7.18;5.07;;;;;;;15.90;100.00;101265.09;4946681;29;20409;-88
2023/05/12 07:40:29;;;;;;;5.80;4.60;;;;;;;16.28;100.00;101282.63;4934263;28;20039;-89
2023/05/12 07:42:55;;;;;;;6.65;4.75;;;;;;;15.92;100.00;101283.28;4929891;29;20027;-87
2023/05/12 07:45:24;;;;;;;6.03;4.68;;;;;;;15.57;100.00;101289.31;4948649;28;20488;-88
2023/05/12 07:47:49;;;;;;;5.38;4.20;;;;;;;15.71;100.00;101288.91;4933465;28;20102;-88
2023/05/12 07:50:16;;;;;;;9.93;5.05;;;;;;;15.69;100.00;101290.94;4964029;28;20035;-87
2023/05/12 07:52:50;;;;;;;5.95;4.78;;;;;;;16.15;100.00;101285.72;4934596;29;20031;-88
2023/05/12 07:55:18;;;;;;;4.40;3.85;;;;;;;15.89;100.00;101286.34;4930950;29;20035;-87
2023/05/12 07:57:43;;;;;;;10.32;5.00;;;;;;;16.25;100.00;101281.06;4928909;28;20372;-87
2023/05/12 08:00:10;;;;;;;6.90;3.90;;;;;;;15.84;100.00;101294.19;4922690;28;20038;-87
2023/05/12 08:02:39;;;;;;;8.35;3.70;;;;;;;15.63;100.00;101281.34;4946367;29;20040;-88
2023/05/12 08:05:06;;;;;;;5.03;3.92;;;;;;;15.55;100.00;101296.88;4986295;28;20050;-88
2023/05/12 08:07:32;;;;;;;6.25;3.78;;;;;;;15.50;100.00;101290.94;4962449;29;20019;-88
2023/05/12 08:09:57;;;;;;;4.97;4.10;;;;;;;15.59;100.00;101293.69;4964960;29;20035;-87
2023/05/12 08:12:23;;;;;;;3.55;3.20;;;;;;;15.52;100.00;101278.72;4940659;29;20050;-87
2023/05/12 08:14:48;;;;;;;4.55;3.45;;;;;;;15.88;100.00;101295.63;5788272;23;20321;-87
2023/05/12 08:17:14;;;;;;;4.00;2.55;;;;;;;15.87;100.00;101304.94;4964471;28;20103;-89
2023/05/12 08:19:39;;;;;;;8.63;3.40;;;;;;;16.17;100.00;101309.44;4955210;28;20046;-88
2023/05/12 08:22:05;;;;;;;3.70;3.13;;;;;;;16.20;100.00;101319.31;4952479;28;20048;-89
2023/05/12 08:32:14;;;;;;;4.10;3.15;;;;;;;16.29;100.00;101326.72;5014393;28;20081;-87
2023/05/12 08:34:40;;;;;;;3.45;2.65;;;;;;;16.42;100.00;101328.31;4969015;28;20170;-87
2023/05/12 08:37:06;;;;;;;4.97;2.85;;;;;;;17.00;100.00;101321.75;4986670;28;20022;-82
2023/05/12 08:39:32;;;;;;;6.25;2.85;;;;;;;16.97;100.00;101319.28;4987604;28;20034;-88
2023/05/12 08:42:24;;;;;;;3.45;2.30;;;;;;;16.88;100.00;101338.53;4993619;28;20038;-87
2023/05/12 08:44:50;;;;;;;4.68;2.70;;;;;;;17.27;100.00;101332.84;5012837;28;20075;-87
2023/05/12 08:47:18;;;;;;;4.50;2.55;;;;;;;17.52;100.00;101329.50;4995102;28;20046;-87
2023/05/12 08:49:45;;;;;;;3.75;2.47;;;;;;;17.32;100.00;101332.38;5011178;28;20038;-87
2023/05/12 08:52:11;;;;;;;10.50;2.40;;;;;;;17.32;100.00;101335.16;5005970;28;20039;-86
2023/05/12 08:54:38;;;;;;;2.65;1.77;;;;;;;17.35;100.00;101337.63;4978693;28;20588;-87
2023/05/12 08:57:04;;;;;;;2.15;1.95;;;;;;;17.44;100.00;101344.09;4976194;28;20035;-87
2023/05/12 08:59:30;;;;;;;2.70;2.00;;;;;;;18.08;100.00;101342.22;4977401;28;20049;-87
2023/05/12 09:01:57;;;;;;;6.43;2.85;;;;;;;18.41;100.00;101341.66;5010818;28;20040;-88
2023/05/12 09:04:23;;;;;;;11.30;2.17;;;;;;;17.75;100.00;101324.38;4993424;28;20031;-86
2023/05/12 09:06:49;;;;;;;6.32;3.08;;;;;;;18.14;100.00;101341.59;4994440;28;20040;-85
2023/05/12 09:09:16;;;;;;;6.07;2.33;;;;;;;18.22;100.00;101338.03;4989994;28;20086;-86
2023/05/12 09:11:43;;;;;;;3.70;2.58;;;;;;;17.79;100.00;101320.25;4973605;28;20050;-87
2023/05/12 09:14:15;;;;;;;7.07;3.10;;;;;;;18.29;100.00;101336.34;4988154;28;20027;-86
2023/05/12 09:16:45;;;;;;;;;;;;;;;18.28;100.00;101334.63;4989926;28;20039;-87
2023/05/12 09:19:11;;;;;;;4.68;2.72;;;;;;;18.10;100.00;101339.28;5004212;28;19997;-87
2023/05/12 09:21:36;;;;;;;5.25;2.38;;;;;;;19.09;100.00;101335.38;4951177;28;20058;-87
2023/05/12 09:24:07;;;;;;;4.05;1.75;;;;;;;18.74;100.00;101357.50;4995186;28;20030;-86
2023/05/12 09:26:53;;;;;;;3.33;2.20;;;;;;;19.07;100.00;101349.41;4985875;28;20433;-86
2023/05/12 09:29:19;;;;;;;4.20;2.22;;;;;;;20.04;100.00;101353.75;5002627;28;20026;-87
2023/05/12 09:31:52;;;;;;;3.40;1.80;;;;;;;20.13;99.97;101361.06;4999076;28;20065;-87
2023/05/12 09:34:25;;;;;;;3.60;1.85;;;;;;;19.52;100.00;101355.69;4981924;28;20039;-86
2023/05/12 09:36:55;;;;;;;;;;;;;;;19.52;100.00;101354.81;4998103;28;20034;-85
2023/05/12 09:39:20;;;;;;;6.28;2.65;;;;;;;19.22;100.00;101368.25;4997678;28;19910;-87
2023/05/12 09:41:46;;;;;;;3.58;2.60;;;;;;;19.77;100.00;101361.34;4980218;28;20382;-85
2023/05/12 09:44:17;;;;;;;4.28;3.10;;;;;;;20.36;100.00;101370.47;4979320;28;20026;-85
2023/05/12 09:46:43;;;;;;;4.28;2.92;;;;;;;20.45;100.00;101365.78;4962493;28;20045;-86
2023/05/12 09:49:10;;;;;;;3.00;2.10;;;;;;;20.25;98.74;101372.72;4994512;28;20108;-84
2023/05/12 09:51:36;;;;;;;5.38;2.10;;;;;;;20.52;91.95;101361.25;4971601;28;20557;-86
2023/05/12 09:54:02;;;;;;;7.07;2.45;;;;;;;21.44;92.38;101369.25;4976730;28;20061;-84
2023/05/12 09:56:30;;;;;;;3.00;2.22;;;;;;;21.11;94.41;101374.94;4977673;28;20039;-85
2023/05/12 09:58:56;;;;;;;8.20;2.88;;;;;;;20.40;98.24;101371.00;4978732;28;20119;-86
2023/05/12 10:01:23;;;;;;;3.03;2.70;;;;;;;19.97;100.00;101378.59;4994096;28;20031;-86
2023/05/12 10:03:54;;;;;;;3.70;2.15;;;;;;;19.74;96.07;101372.78;4994322;28;20417;-86
2023/05/12 10:06:25;;;;;;;4.00;2.00;;;;;;;19.36;95.09;101375.06;4977129;28;20052;-86
2023/05/12 10:09:04;;;;;;;3.80;2.58;;;;;;;19.30;98.05;101376.59;4977760;28;20862;-85
2023/05/12 10:11:31;;;;;;;5.53;3.28;;;;;;;19.70;94.12;101369.47;4994057;28;20049;-85
2023/05/12 10:13:58;;;;;;;5.35;2.90;;;;;;;19.92;95.83;101372.69;4976173;28;20453;-85
2023/05/12 10:16:28;;;;;;;4.63;2.30;;;;;;;20.45;87.61;101376.06;4993738;28;20058;-85
2023/05/12 10:18:55;;;;;;;5.63;3.20;;;;;;;20.05;96.64;101378.59;4960826;28;20042;-86
2023/05/12 10:21:23;;;;;;;4.40;2.33;;;;;;;20.15;91.58;101371.00;4959849;28;20057;-86
2023/05/12 10:23:48;;;;;;;7.93;3.05;;;;;;;20.79;92.38;101375.91;4976609;28;20031;-85
2023/05/12 10:26:15;;;;;;;4.00;2.72;;;;;;;20.68;91.07;101382.69;4974627;28;20043;-84
2023/05/12 10:28:41;;;;;;;6.55;3.00;;;;;;;20.99;89.54;101379.16;4992000;28;20500;-85
2023/05/12 10:31:09;;;;;;;2.92;2.60;;;;;;;20.35;92.73;101360.41;4960219;28;20386;-85
2023/05/12 10:33:34;;;;;;;4.88;2.88;;;;;;;20.37;87.41;101371.34;4978252;28;20037;-86
2023/05/12 10:36:03;;;;;;;6.55;3.05;;;;;;;20.18;92.02;101384.56;4977569;28;20030;-84
2023/05/12 10:38:36;;;;;;;4.90;2.70;;;;;;;20.57;92.55;101386.63;4988928;28;20038;-85
2023/05/12 10:41:05;;;;;;;3.25;2.70;;;;;;;20.08;89.65;101385.75;4988521;28;20030;-86
2023/05/12 10:43:43;;;;;;;6.40;2.47;;;;;;;19.88;88.04;101380.50;4978947;28;20494;-85
2023/05/12 10:46:16;;;;;;;7.10;3.05;;;;;;;19.75;89.12;101380.06;4975386;28;20026;-85
2023/05/12 10:49:30;;;;;;;4.88;3.08;;;;;;;19.46;93.42;101389.69;4974544;28;20031;-85
2023/05/12 10:51:59;;;;;;;3.80;3.42;;;;;;;19.42;100.00;101391.06;4910856;29;20043;-86
2023/05/12 10:54:25;;;;;;;7.18;4.35;;;;;;;19.71;100.00;101396.22;4893261;29;20036;-85
2023/05/12 10:56:51;;;;;;;5.63;4.28;;;;;;;20.09;100.00;101390.28;4926496;28;20073;-86
2023/05/12 10:59:20;;;;;;;8.90;4.28;;;;;;;19.45;100.00;101396.28;4996922;28;20068;-86
2023/05/12 11:02:11;;;;;;;6.72;4.32;;;;;;;19.16;100.00;101394.75;4977780;28;20034;-85
2023/05/12 11:04:44;;;;;;;6.03;4.07;;;;;;;19.26;100.00;101392.69;5004411;28;20470;-85
2023/05/12 11:07:11;;;;;;;8.23;3.95;;;;;;;19.70;100.00;101379.72;4993686;28;20092;-85
2023/05/12 11:09:39;;;;;;;6.63;4.10;;;;;;;19.14;100.00;101396.81;4979605;28;20041;-85
2023/05/12 11:12:06;;;;;;;11.57;4.63;;;;;;;18.92;100.00;101398.22;4998646;28;20026;-86
2023/05/12 11:14:33;;;;;;;7.50;4.00;;;;;;;19.21;100.00;101391.47;4980612;28;20038;-86
2023/05/12 11:16:59;;;;;;;6.80;4.13;;;;;;;19.05;100.00;101397.78;4958674;28;20026;-85
2023/05/12 11:19:25;;;;;;;16.58;4.40;;;;;;;19.01;100.00;101394.47;4966348;28;20031;-86
2023/05/12 11:21:50;;;;;;;8.90;4.47;;;;;;;18.59;100.00;101377.66;4983684;28;20441;-86
2023/05/12 11:24:16;;;;;;;6.55;4.40;;;;;;;19.23;100.00;101409.72;4998256;28;20026;-85
2023/05/12 11:26:42;;;;;;;7.60;4.03;;;;;;;19.88;100.00;101415.75;4964960;28;20081;-85
2023/05/12 11:29:07;;;;;;;12.00;4.10;;;;;;;19.94;96.33;101410.41;4997565;28;20061;-85
2023/05/12 11:31:33;;;;;;;7.57;3.67;;;;;;;19.98;100.00;101403.44;4948127;28;20046;-86
2023/05/12 11:34:06;;;;;;;10.82;3.95;;;;;;;20.04;97.53;101426.94;4996396;28;20497;-86
2023/05/12 11:36:39;;;;;;;8.20;3.90;;;;;;;20.08;95.75;101417.19;4948580;28;20035;-86
2023/05/12 11:39:06;;;;;;;9.15;3.72;;;;;;;20.65;92.94;101413.63;4996569;28;20029;-86
2023/05/12 11:41:31;;;;;;;6.38;3.33;;;;;;;19.89;87.34;101414.69;4979333;28;20035;-86
2023/05/12 11:43:57;;;;;;;8.55;3.85;;;;;;;20.55;92.58;101411.00;4996394;28;20049;-86
2023/05/12 11:46:25;;;;;;;9.25;3.55;;;;;;;20.83;89.47;101432.94;4993710;28;20034;-86
2023/05/12 11:48:55;;;;;;;9.00;3.90;;;;;;;20.68;85.46;101438.34;4971834;28;20034;-86
2023/05/12 11:51:21;;;;;;;6.13;3.28;;;;;;;20.62;89.28;101411.16;4999188;28;20030;-86
2023/05/12 11:53:47;;;;;;;5.05;3.67;;;;;;;20.43;87.62;101428.19;4967439;28;20027;-85
2023/05/12 11:56:20;;;;;;;5.65;3.50;;;;;;;20.18;92.51;101425.38;4982212;28;20033;-85
2023/05/12 11:58:56;;;;;;;6.55;3.78;;;;;;;20.32;85.55;101432.19;4980469;28;20050;-85
2023/05/12 12:01:25;;;;;;;6.97;3.85;;;;;;;19.62;90.15;101419.44;4966170;28;20416;-84
2023/05/12 12:03:53;;;;;;;6.25;3.75;;;;;;;19.92;91.05;101447.72;4977625;28;20019;-85
2023/05/12 12:06:21;;;;;;;3.65;3.28;;;;;;;19.65;98.97;101441.34;4990634;28;20722;-84
2023/05/12 12:08:55;;;;;;;6.20;3.75;;;;;;;19.53;90.61;101440.78;4963164;28;20397;-84
2023/05/12 12:11:22;;;;;;;4.78;3.45;;;;;;;19.38;92.46;101448.84;4997048;28;20386;-84
2023/05/12 12:13:55;;;;;;;6.88;3.40;;;;;;;19.25;92.65;101452.06;4964591;28;20027;-84
2023/05/12 12:16:25;;;;;;;9.10;3.33;;;;;;;19.53;90.76;101448.22;4979270;28;20166;-85
2023/05/12 12:18:51;;;;;;;13.65;3.80;;;;;;;19.47;88.76;101449.75;4975652;28;20046;-84
2023/05/12 12:21:17;;;;;;;8.05;4.07;;;;;;;19.53;94.85;101454.66;4980831;28;20498;-85